createdAt,value
2022-12-19T00:00:49.538Z,-1.11
2022-12-19T00:03:36.703Z,-1.33
2022-12-19T00:06:24.425Z,-1.10
2022-12-19T00:09:13.144Z,-1.11
2022-12-19T00:12:00.461Z,-1.11
2022-12-19T00:14:47.489Z,-1.11
2022-12-19T00:17:35.356Z,-1.19
2022-12-19T00:20:24.498Z,-1.14
2022-12-19T00:23:11.500Z,-1.14
2022-12-19T00:25:58.679Z,-1.15
2022-12-19T00:28:47.085Z,-1.18
2022-12-19T00:31:36.599Z,-1.19
2022-12-19T00:34:23.806Z,-1.32
2022-12-19T00:37:10.751Z,-1.19
2022-12-19T00:39:57.729Z,-2.06
2022-12-19T00:42:48.657Z,-1.24
2022-12-19T00:45:38.927Z,-1.45
2022-12-19T00:48:26.034Z,-1.26
2022-12-19T00:51:24.174Z,-1.27
2022-12-19T00:54:12.899Z,-1.29
2022-12-19T00:56:40.162Z,-1.38
2022-12-19T00:59:07.356Z,-1.46
2022-12-19T01:01:37.331Z,-1.41
2022-12-19T01:06:59.793Z,-1.47
2022-12-19T01:09:33.391Z,-1.59
2022-12-19T01:12:20.457Z,-2.03
2022-12-19T01:15:14.728Z,-2.02
2022-12-19T01:18:01.641Z,-1.52
2022-12-19T01:20:48.567Z,-1.52
2022-12-19T01:23:36.538Z,-1.50
2022-12-19T01:26:23.789Z,-1.50
2022-12-19T01:29:10.700Z,-1.61
2022-12-19T01:31:57.616Z,-1.51
2022-12-19T01:34:44.586Z,-1.54
2022-12-19T01:37:31.632Z,-1.56
2022-12-19T01:40:18.554Z,-1.72
2022-12-19T01:43:05.520Z,-1.66
2022-12-19T01:45:55.586Z,-1.61
2022-12-19T01:48:53.711Z,-1.62
2022-12-19T01:51:44.334Z,-1.63
2022-12-19T01:54:44.836Z,-1.62
2022-12-19T01:57:35.821Z,-1.64
2022-12-19T02:00:26.216Z,-1.60
2022-12-19T02:03:19.610Z,-2.08
2022-12-19T02:06:06.622Z,-1.86
2022-12-19T02:08:55.265Z,-1.59
2022-12-19T02:11:42.315Z,-1.84
2022-12-19T02:14:29.451Z,-1.58
2022-12-19T02:17:25.673Z,-1.56
2022-12-19T02:20:50.609Z,-1.57
2022-12-19T02:23:43.419Z,-1.55
2022-12-19T02:27:05.419Z,-1.55
2022-12-19T02:30:40.690Z,-1.53
2022-12-19T02:33:41.332Z,-1.52
2022-12-19T02:36:46.853Z,-1.77
2022-12-19T02:39:42.772Z,-2.22
2022-12-19T02:42:35.235Z,-2.23
2022-12-19T02:45:28.853Z,-1.54
2022-12-19T02:48:19.621Z,-1.53
2022-12-19T02:51:07.767Z,-1.60
2022-12-19T02:53:58.308Z,-2.07
2022-12-19T02:56:57.777Z,-1.57
2022-12-19T02:59:53.689Z,-1.56
2022-12-19T03:02:59.827Z,-1.55
2022-12-19T03:06:09.567Z,-1.56
2022-12-19T03:09:07.469Z,-1.54
2022-12-19T03:11:58.929Z,-1.54
2022-12-19T03:14:47.224Z,-1.55
2022-12-19T03:17:34.712Z,-1.54
2022-12-19T03:20:25.676Z,-1.54
2022-12-19T03:23:12.690Z,-1.64
2022-12-19T03:26:03.317Z,-1.66
2022-12-19T03:29:02.212Z,-1.52
2022-12-19T03:31:53.284Z,-1.53
2022-12-19T03:34:55.113Z,-1.54
2022-12-19T03:37:45.453Z,-1.59
2022-12-19T03:40:39.918Z,-1.57
2022-12-19T03:43:31.254Z,-1.57
2022-12-19T03:46:43.390Z,-1.58
2022-12-19T03:49:30.509Z,-1.57
2022-12-19T03:52:42.050Z,-1.75
2022-12-19T03:55:39.538Z,-1.56
2022-12-19T03:58:31.994Z,-1.56
2022-12-19T04:01:19.565Z,-1.99
2022-12-19T04:04:06.538Z,-1.54
2022-12-19T04:06:54.997Z,-1.61
2022-12-19T04:09:43.618Z,-1.53
2022-12-19T04:12:36.068Z,-1.52
2022-12-19T04:15:24.284Z,-1.66
2022-12-19T04:18:17.428Z,-1.51
2022-12-19T04:21:07.829Z,-1.54
2022-12-19T04:24:02.170Z,-1.52
2022-12-19T04:26:51.420Z,-1.55
2022-12-19T04:29:39.193Z,-1.55
2022-12-19T04:32:28.656Z,-1.55
2022-12-19T04:35:15.524Z,-1.57
2022-12-19T04:38:02.691Z,-1.58
2022-12-19T04:40:49.989Z,-1.59
2022-12-19T04:43:36.894Z,-1.60
2022-12-19T04:46:24.084Z,-2.21
2022-12-19T04:49:10.940Z,-2.44
2022-12-19T04:51:58.255Z,-1.68
2022-12-19T04:54:46.628Z,-1.73
2022-12-19T04:57:33.614Z,-1.79
2022-12-19T05:00:20.533Z,-1.83
2022-12-19T05:03:07.502Z,-1.87
2022-12-19T05:05:54.445Z,-1.90
2022-12-19T05:08:41.898Z,-1.93
2022-12-19T05:11:30.493Z,-1.93
2022-12-19T05:14:19.081Z,-2.13
2022-12-19T05:17:05.963Z,-2.50
2022-12-19T05:19:53.376Z,-1.94
2022-12-19T05:22:40.295Z,-1.92
2022-12-19T05:25:27.843Z,-1.93
2022-12-19T05:28:14.881Z,-1.96
2022-12-19T05:31:02.399Z,-1.85
2022-12-19T05:33:49.538Z,-1.85
2022-12-19T05:36:37.917Z,-1.84
2022-12-19T05:39:25.006Z,-1.83
2022-12-19T05:42:12.611Z,-2.31
2022-12-19T05:44:59.646Z,-1.84
2022-12-19T05:47:46.610Z,-1.86
2022-12-19T05:50:37.666Z,-1.91
2022-12-19T05:53:29.538Z,-1.92
2022-12-19T05:56:27.257Z,-1.95
2022-12-19T05:59:14.333Z,-2.03
2022-12-19T06:02:02.199Z,-1.97
2022-12-19T06:04:50.524Z,-1.97
2022-12-19T06:07:38.103Z,-1.98
2022-12-19T06:10:26.458Z,-1.98
2022-12-19T06:13:13.329Z,-1.99
2022-12-19T06:16:00.261Z,-2.00
2022-12-19T06:18:47.900Z,-2.03
2022-12-19T06:21:47.884Z,-2.05
2022-12-19T06:24:35.651Z,-2.10
2022-12-19T06:27:22.705Z,-2.18
2022-12-19T06:30:09.964Z,-2.29
2022-12-19T06:32:57.023Z,-2.36
2022-12-19T06:35:43.856Z,-2.40
2022-12-19T06:38:30.774Z,-2.43
2022-12-19T06:41:16.771Z,-2.46
2022-12-19T06:43:45.334Z,-2.40
2022-12-19T06:46:14.867Z,-2.38
2022-12-19T06:48:41.832Z,-2.40
2022-12-19T06:51:28.702Z,-2.39
2022-12-19T06:54:15.690Z,-2.36
2022-12-19T06:57:03.843Z,-3.02
2022-12-19T06:59:50.744Z,-2.32
2022-12-19T07:02:45.503Z,-2.32
2022-12-19T07:05:33.386Z,-2.42
2022-12-19T07:08:21.007Z,-2.43
2022-12-19T07:11:08.041Z,-2.27
2022-12-19T07:13:54.952Z,-2.26
2022-12-19T07:16:41.887Z,-2.23
2022-12-19T07:19:29.577Z,-2.21
2022-12-19T07:22:16.630Z,-2.19
2022-12-19T07:25:03.646Z,-2.21
2022-12-19T07:27:50.514Z,-2.17
2022-12-19T07:30:37.996Z,-2.12
2022-12-19T07:33:25.240Z,-2.16
2022-12-19T07:35:52.467Z,-2.08
2022-12-19T07:38:39.432Z,-2.05
2022-12-19T07:41:26.429Z,-2.04
2022-12-19T07:44:13.548Z,-2.02
2022-12-19T07:47:00.449Z,-2.00
2022-12-19T07:49:47.366Z,-2.13
2022-12-19T07:52:34.312Z,-1.96
2022-12-19T07:55:21.286Z,-1.94
2022-12-19T07:58:08.301Z,-1.95
2022-12-19T08:00:55.458Z,-1.90
2022-12-19T08:03:22.674Z,-1.88
2022-12-19T08:05:50.073Z,-1.87
2022-12-19T08:08:37.292Z,-2.15
2022-12-19T08:11:42.980Z,-1.82
2022-12-19T08:14:30.779Z,-1.80
2022-12-19T08:17:20.775Z,-1.77
2022-12-19T08:20:08.050Z,-1.76
2022-12-19T08:22:55.211Z,-1.73
2022-12-19T08:25:22.255Z,-1.73
2022-12-19T08:27:49.262Z,-1.70
2022-12-19T08:30:16.185Z,-1.71
2022-12-19T08:32:44.820Z,-1.67
2022-12-19T08:35:11.976Z,-1.65
2022-12-19T08:37:58.855Z,-1.62
2022-12-19T08:40:47.572Z,-1.61
2022-12-19T08:43:34.678Z,-1.59
2022-12-19T08:46:21.939Z,-2.09
2022-12-19T08:49:09.532Z,-1.62
2022-12-19T08:51:56.376Z,-1.53
2022-12-19T08:54:27.360Z,-1.54
2022-12-19T08:56:54.414Z,-1.53
2022-12-19T08:59:31.338Z,-1.51
2022-12-19T09:02:00.880Z,-1.50
2022-12-19T09:05:11.165Z,-1.49
2022-12-19T09:07:16.171Z,-1.85
2022-12-19T09:10:05.328Z,-1.45
2022-12-19T09:12:57.292Z,-1.44
2022-12-19T09:15:44.895Z,-1.43
2022-12-19T09:18:32.086Z,-1.56
2022-12-19T09:21:19.875Z,-1.42
2022-12-19T09:24:15.370Z,-1.40
2022-12-19T09:27:02.203Z,-1.43
2022-12-19T09:29:49.286Z,-1.40
2022-12-19T09:32:36.255Z,-1.42
2022-12-19T09:35:27.048Z,-1.39
2022-12-19T09:38:17.208Z,-1.63
2022-12-19T09:41:22.732Z,-1.40
2022-12-19T09:44:15.295Z,-1.37
2022-12-19T09:47:23.627Z,-1.37
2022-12-19T09:50:12.470Z,-1.52
2022-12-19T09:53:07.953Z,-1.37
2022-12-19T09:55:58.131Z,-1.37
2022-12-19T09:58:59.350Z,-1.82
2022-12-19T10:01:52.908Z,-1.36
2022-12-19T10:04:40.082Z,-1.35
2022-12-19T10:08:01.317Z,-1.34
2022-12-19T10:12:37.969Z,-1.47
2022-12-19T10:13:56.007Z,-1.36
2022-12-19T10:17:08.533Z,-1.38
2022-12-19T10:20:00.355Z,-1.41
2022-12-19T10:23:18.199Z,-1.39
2022-12-19T10:26:30.263Z,-1.39
2022-12-19T10:29:28.006Z,-1.39
2022-12-19T10:32:29.725Z,-1.40
2022-12-19T10:35:17.424Z,-1.40
2022-12-19T10:38:16.432Z,-1.42
2022-12-19T10:41:15.419Z,-1.44
2022-12-19T10:44:14.589Z,-1.46
2022-12-19T10:47:04.454Z,-1.49
2022-12-19T10:49:51.639Z,-1.52
2022-12-19T10:53:06.540Z,-1.50
2022-12-19T10:56:07.474Z,-1.52
2022-12-19T10:58:57.232Z,-1.52
2022-12-19T11:01:51.865Z,-1.53
2022-12-19T11:04:56.513Z,-1.54
2022-12-19T11:07:43.422Z,-1.55
2022-12-19T11:13:14.761Z,-1.59
2022-12-19T11:17:47.759Z,-1.64
2022-12-19T11:26:16.224Z,-1.65
2022-12-19T11:29:38.748Z,-1.67
2022-12-19T11:29:42.128Z,-1.80
2022-12-19T11:30:58.909Z,-1.70
2022-12-19T11:33:34.199Z,-1.73
2022-12-19T11:36:23.703Z,-1.73
2022-12-19T11:39:13.605Z,-1.77
2022-12-19T11:42:16.153Z,-1.81
2022-12-19T11:45:36.067Z,-1.89
2022-12-19T11:48:36.813Z,-1.95
2022-12-19T11:51:47.022Z,-2.04
2022-12-19T11:54:33.797Z,-2.11
2022-12-19T11:57:21.458Z,-2.19
2022-12-19T12:00:08.795Z,-2.39
2022-12-19T12:04:02.015Z,-2.25
2022-12-19T12:06:58.470Z,-2.23
2022-12-19T12:14:34.603Z,-2.24
2022-12-19T12:21:07.154Z,-2.26
2022-12-19T12:30:58.974Z,-2.27
2022-12-19T12:31:15.119Z,-2.37
2022-12-19T12:31:26.161Z,-2.33
2022-12-19T12:31:42.781Z,-2.41
2022-12-19T12:31:45.495Z,-2.50
2022-12-19T12:35:46.739Z,-2.57
2022-12-19T12:40:35.607Z,-2.53
2022-12-19T12:43:41.052Z,-2.53
2022-12-19T12:46:37.295Z,-2.54
2022-12-19T12:49:27.043Z,-2.88
2022-12-19T12:52:15.373Z,-2.57
2022-12-19T12:55:09.661Z,-2.60
2022-12-19T12:57:58.131Z,-2.63
2022-12-19T13:00:49.551Z,-2.65
2022-12-19T13:03:46.148Z,-2.68
2022-12-19T13:07:01.941Z,-2.70
2022-12-19T13:09:58.805Z,-3.45
2022-12-19T13:12:46.431Z,-2.77
2022-12-19T13:16:02.781Z,-2.83
2022-12-19T13:18:59.652Z,-2.89
2022-12-19T13:21:46.555Z,-3.31
2022-12-19T13:24:34.482Z,-3.04
2022-12-19T13:27:24.095Z,-3.10
2022-12-19T13:30:19.913Z,-3.14
2022-12-19T13:33:06.671Z,-3.17
2022-12-19T13:39:36.237Z,-3.19
2022-12-19T13:40:02.475Z,-3.22
2022-12-19T13:42:34.179Z,-3.97
2022-12-19T13:45:30.001Z,-3.31
2022-12-19T13:48:19.711Z,-3.52
2022-12-19T13:51:08.393Z,-3.41
2022-12-19T13:53:59.776Z,-4.10
2022-12-19T13:56:50.443Z,-3.44
2022-12-19T13:59:38.060Z,-3.47
2022-12-19T14:02:45.390Z,-3.88
2022-12-19T14:05:49.370Z,-3.56
2022-12-19T14:09:16.738Z,-3.61
2022-12-19T14:12:28.959Z,-3.67
2022-12-19T14:15:13.038Z,-3.73
2022-12-19T14:17:45.073Z,-3.77
2022-12-19T14:22:05.976Z,-3.81
2022-12-19T14:23:57.608Z,-3.86
2022-12-19T14:28:20.528Z,-3.90
2022-12-19T14:30:28.005Z,-3.96
2022-12-19T14:33:47.019Z,-4.00
2022-12-19T14:36:26.909Z,-4.06
2022-12-19T14:39:23.052Z,-4.11
2022-12-19T14:42:48.354Z,-4.26
2022-12-19T14:54:02.259Z,-4.25
2022-12-19T14:54:08.206Z,-4.30
2022-12-19T14:54:40.198Z,-4.36
2022-12-19T14:56:27.679Z,-4.46
2022-12-19T14:59:16.531Z,-4.46
2022-12-19T15:02:15.737Z,-4.85
2022-12-19T15:05:25.247Z,-4.54
2022-12-19T15:08:15.532Z,-4.55
2022-12-19T15:11:16.958Z,-4.59
2022-12-19T15:14:54.268Z,-4.66
2022-12-19T15:17:38.903Z,-4.95
2022-12-19T15:20:26.411Z,-4.68
2022-12-19T15:23:19.831Z,-4.72
2022-12-19T15:26:09.342Z,-4.76
2022-12-19T15:28:57.661Z,-4.79
2022-12-19T15:31:57.512Z,-4.83
2022-12-19T15:34:52.296Z,-4.95
2022-12-19T15:37:39.145Z,-4.90
2022-12-19T15:40:26.875Z,-5.00
2022-12-19T15:43:53.119Z,-5.29
2022-12-19T15:46:24.047Z,-5.03
2022-12-19T15:49:11.178Z,-5.06
2022-12-19T15:51:58.104Z,-5.11
2022-12-19T15:54:50.113Z,-5.13
2022-12-19T15:58:01.929Z,-5.19
2022-12-19T16:00:53.775Z,-5.22
2022-12-19T16:03:41.019Z,-5.26
2022-12-19T16:06:33.294Z,-5.63
2022-12-19T16:09:20.207Z,-5.33
2022-12-19T16:12:08.040Z,-5.37
2022-12-19T17:17:00.870Z,-6.33
2022-12-19T17:19:55.531Z,-6.36
2022-12-19T17:22:42.562Z,-6.46
2022-12-19T17:25:38.467Z,-6.58
2022-12-19T17:28:25.683Z,-7.23
2022-12-19T17:31:16.050Z,-7.12
2022-12-19T17:34:03.289Z,-6.66
2022-12-19T17:36:52.445Z,-6.66
2022-12-19T17:39:46.424Z,-6.65
2022-12-19T17:42:40.806Z,-6.64
2022-12-19T17:45:29.254Z,-6.64
2022-12-19T17:48:20.485Z,-6.64
2022-12-19T17:51:07.627Z,-6.67
2022-12-19T17:53:54.626Z,-6.64
2022-12-19T17:56:41.926Z,-6.64
2022-12-19T17:59:28.799Z,-6.83
2022-12-19T18:02:15.941Z,-6.64
2022-12-19T18:05:02.932Z,-6.64
2022-12-19T18:07:49.966Z,-6.64
2022-12-19T18:10:39.597Z,-6.65
2022-12-19T18:13:26.748Z,-6.65
2022-12-19T18:16:18.430Z,-6.66
2022-12-19T18:19:05.985Z,-6.67
2022-12-19T18:21:53.126Z,-6.93
2022-12-19T18:24:40.169Z,-6.68
2022-12-19T18:27:27.129Z,-6.72
2022-12-19T18:30:14.016Z,-6.69
2022-12-19T18:33:06.256Z,-6.69
2022-12-19T18:36:00.399Z,-6.70
2022-12-19T18:38:47.344Z,-6.71
2022-12-19T18:41:35.575Z,-6.84
2022-12-19T18:44:22.487Z,-6.71
2022-12-19T18:47:10.914Z,-6.72
2022-12-19T18:49:57.811Z,-6.77
2022-12-19T18:52:44.754Z,-6.79
2022-12-19T18:55:36.919Z,-6.85
2022-12-19T18:58:23.790Z,-6.88
2022-12-19T19:01:11.342Z,-6.90
2022-12-19T19:04:00.329Z,-6.90
2022-12-19T19:06:52.508Z,-6.98
2022-12-19T19:09:40.802Z,-6.90
2022-12-19T19:12:46.454Z,-6.92
2022-12-19T19:15:33.323Z,-6.93
2022-12-19T19:18:22.981Z,-6.95
2022-12-19T19:21:11.787Z,-7.02
2022-12-19T19:24:08.629Z,-6.97
2022-12-19T19:26:55.690Z,-6.99
2022-12-19T19:29:42.630Z,-7.01
2022-12-19T19:32:30.094Z,-7.23
2022-12-19T19:35:17.149Z,-7.05
2022-12-19T19:38:05.042Z,-7.06
2022-12-19T19:40:52.665Z,-7.08
2022-12-19T19:43:39.573Z,-7.21
2022-12-19T19:46:26.633Z,-7.11
2022-12-19T19:49:14.265Z,-7.13
2022-12-19T19:52:03.118Z,-7.73
2022-12-19T19:54:52.316Z,-7.18
2022-12-19T19:57:39.199Z,-7.27
2022-12-19T20:00:28.716Z,-7.21
2022-12-19T20:03:20.736Z,-7.24
2022-12-19T20:06:10.408Z,-7.31
2022-12-19T20:08:57.412Z,-7.43
2022-12-19T20:11:44.380Z,-7.37
2022-12-19T20:14:31.285Z,-7.76
2022-12-19T20:17:18.188Z,-7.84
2022-12-19T20:20:05.106Z,-7.43
2022-12-19T20:22:52.136Z,-8.15
2022-12-19T20:25:39.132Z,-7.45
2022-12-19T20:28:26.793Z,-7.45
2022-12-19T20:31:13.876Z,-7.44
2022-12-19T20:34:01.108Z,-7.46
2022-12-19T20:36:48.020Z,-7.55
2022-12-19T20:39:35.299Z,-7.46
2022-12-19T20:42:22.262Z,-7.47
2022-12-19T20:45:09.304Z,-7.48
2022-12-19T20:47:56.277Z,-7.49
2022-12-19T20:50:43.546Z,-7.48
2022-12-19T20:53:30.479Z,-7.50
2022-12-19T20:56:20.096Z,-7.64
2022-12-19T20:59:07.021Z,-7.50
2022-12-19T21:01:54.000Z,-7.49
2022-12-19T21:04:40.964Z,-7.49
2022-12-19T21:07:27.922Z,-7.49
2022-12-19T21:10:14.825Z,-7.50
2022-12-19T21:13:01.749Z,-7.49
2022-12-19T21:15:48.598Z,-7.60
2022-12-19T21:18:35.692Z,-7.49
2022-12-19T21:21:23.570Z,-7.50
2022-12-19T21:24:11.048Z,-7.46
2022-12-19T21:26:58.507Z,-7.53
2022-12-19T21:29:45.514Z,-7.47
2022-12-19T21:32:52.278Z,-7.46
2022-12-19T21:35:39.195Z,-7.46
2022-12-19T21:38:26.151Z,-7.73
2022-12-19T21:41:13.063Z,-7.44
2022-12-19T21:43:59.852Z,-7.43
2022-12-19T21:46:49.748Z,-7.56
2022-12-19T21:49:36.777Z,-7.46
2022-12-19T21:52:23.754Z,-7.42
2022-12-19T21:55:10.659Z,-7.43
2022-12-19T21:57:59.619Z,-7.78
2022-12-19T22:00:46.703Z,-7.43
2022-12-19T22:03:33.731Z,-7.42
2022-12-19T22:06:27.377Z,-7.41
2022-12-19T22:09:15.596Z,-7.39
2022-12-19T22:12:03.218Z,-7.38
2022-12-19T22:14:50.238Z,-7.36
2022-12-19T22:17:37.153Z,-7.36
2022-12-19T22:20:24.452Z,-7.34
2022-12-19T22:23:13.419Z,-7.32
2022-12-19T22:26:00.876Z,-7.30
2022-12-19T22:28:50.033Z,-7.29
2022-12-19T22:31:42.603Z,-7.28
2022-12-19T22:34:35.781Z,-7.26
2022-12-19T22:37:22.845Z,-7.24
2022-12-19T22:40:09.725Z,-7.22
2022-12-19T22:42:56.708Z,-7.21
2022-12-19T22:45:43.652Z,-7.26
2022-12-19T22:48:30.614Z,-7.64
2022-12-19T22:51:17.458Z,-7.14
2022-12-19T22:54:05.475Z,-7.12
2022-12-19T22:56:53.995Z,-7.09
2022-12-19T22:59:40.865Z,-7.06
2022-12-19T23:02:28.104Z,-7.03
2022-12-19T23:05:15.086Z,-6.99
2022-12-19T23:08:01.987Z,-6.99
2022-12-19T23:10:48.941Z,-6.93
2022-12-19T23:13:35.768Z,-6.89
2022-12-19T23:16:22.849Z,-7.94
2022-12-19T23:19:09.756Z,-6.81
2022-12-19T23:21:57.438Z,-6.76
2022-12-19T23:24:44.367Z,-6.72
2022-12-19T23:27:31.323Z,-6.69
2022-12-19T23:30:18.319Z,-6.66
2022-12-19T23:33:05.314Z,-6.61
2022-12-19T23:35:52.826Z,-6.96
2022-12-19T23:38:40.114Z,-6.54
2022-12-19T23:41:35.010Z,-6.50
2022-12-19T23:44:22.077Z,-6.47
2022-12-19T23:47:09.202Z,-6.93
2022-12-19T23:49:56.178Z,-6.38
2022-12-19T23:52:43.125Z,-6.35
2022-12-19T23:55:11.099Z,-6.32
2022-12-19T23:57:38.126Z,-6.29
